createdAt,value
2019-05-22T00:02:01.948Z,25.40
2019-05-22T00:04:34.438Z,25.30
2019-05-22T00:07:06.767Z,25.30
2019-05-22T00:09:39.577Z,25.30
2019-05-22T00:12:12.825Z,25.20
2019-05-22T00:14:44.392Z,25.20
2019-05-22T00:17:16.940Z,25.10
2019-05-22T00:19:48.710Z,25.10
2019-05-22T00:22:21.347Z,25.20
2019-05-22T00:24:54.129Z,25.20
2019-05-22T00:27:26.856Z,25.20
2019-05-22T00:29:58.982Z,25.30
2019-05-22T00:32:31.364Z,25.30
2019-05-22T00:35:02.882Z,25.30
2019-05-22T00:37:34.019Z,25.30
2019-05-22T00:40:06.462Z,25.40
2019-05-22T00:42:37.627Z,25.40
2019-05-22T00:45:10.125Z,25.40
2019-05-22T00:47:40.040Z,25.50
2019-05-22T00:50:13.806Z,25.50
2019-05-22T00:52:47.054Z,25.50
2019-05-22T00:55:20.582Z,25.60
2019-05-22T00:57:53.374Z,25.50
2019-05-22T01:00:25.606Z,25.50
2019-05-22T01:02:57.612Z,25.50
2019-05-22T01:05:32.969Z,25.50
2019-05-22T01:08:05.310Z,25.50
2019-05-22T01:10:37.255Z,25.60
2019-05-22T01:13:09.512Z,25.60
2019-05-22T01:15:41.770Z,25.60
2019-05-22T01:18:14.004Z,25.60
2019-05-22T01:20:45.093Z,25.60
2019-05-22T01:23:17.375Z,25.60
2019-05-22T01:25:49.599Z,25.70
2019-05-22T01:28:21.272Z,25.70
2019-05-22T01:30:54.456Z,25.70
2019-05-22T01:33:27.431Z,25.70
2019-05-22T01:36:00.147Z,25.80
2019-05-22T01:38:32.754Z,25.80
2019-05-22T01:41:06.493Z,25.80
2019-05-22T01:43:38.955Z,25.80
2019-05-22T01:46:11.221Z,25.80
2019-05-22T01:48:44.428Z,25.90
2019-05-22T01:51:16.205Z,25.90
2019-05-22T01:53:48.069Z,25.90
2019-05-22T01:56:20.472Z,26.00
2019-05-22T01:58:51.385Z,26.10
2019-05-22T02:01:23.653Z,26.10
2019-05-22T02:03:55.983Z,26.20
2019-05-22T02:06:26.511Z,26.20
2019-05-22T02:09:01.453Z,26.20
2019-05-22T02:11:32.649Z,26.30
2019-05-22T02:14:06.656Z,26.30
2019-05-22T02:16:38.258Z,26.30
2019-05-22T02:19:10.098Z,26.30
2019-05-22T02:21:41.687Z,26.30
2019-05-22T02:24:13.005Z,26.40
2019-05-22T02:26:44.349Z,26.30
2019-05-22T02:29:15.694Z,26.30
2019-05-22T02:31:47.961Z,26.30
2019-05-22T02:34:19.592Z,26.30
2019-05-22T02:36:50.940Z,26.40
2019-05-22T02:39:23.341Z,26.40
2019-05-22T02:41:56.524Z,26.40
2019-05-22T02:44:29.228Z,26.40
2019-05-22T02:47:20.535Z,26.40
2019-05-22T02:49:50.361Z,26.40
2019-05-22T02:52:21.847Z,26.50
2019-05-22T02:54:53.397Z,26.50
2019-05-22T02:57:24.884Z,26.50
2019-05-22T02:59:56.619Z,26.50
2019-05-22T03:02:27.707Z,26.50
2019-05-22T03:05:01.190Z,26.50
2019-05-22T03:07:33.124Z,26.60
2019-05-22T03:10:05.011Z,26.60
2019-05-22T03:12:37.298Z,26.60
2019-05-22T03:15:12.746Z,26.70
2019-05-22T03:17:44.866Z,26.80
2019-05-22T03:20:19.131Z,26.80
2019-05-22T03:22:51.336Z,26.80
2019-05-22T03:25:23.672Z,26.90
2019-05-22T03:27:54.277Z,26.90
2019-05-22T03:30:28.395Z,27.00
2019-05-22T03:33:00.865Z,27.00
2019-05-22T03:35:33.226Z,27.10
2019-05-22T03:38:03.329Z,27.10
2019-05-22T03:40:34.400Z,27.20
2019-05-22T03:43:08.616Z,27.30
2019-05-22T03:45:40.959Z,27.40
2019-05-22T03:48:11.590Z,27.40
2019-05-22T03:50:43.024Z,27.50
2019-05-22T03:53:17.293Z,27.60
2019-05-22T03:55:50.078Z,27.70
2019-05-22T03:58:22.063Z,27.70
2019-05-22T04:00:54.743Z,27.70
2019-05-22T04:03:25.858Z,27.70
2019-05-22T04:05:57.493Z,27.80
2019-05-22T04:08:29.127Z,27.80
2019-05-22T04:11:03.609Z,27.90
2019-05-22T04:13:34.880Z,27.90
2019-05-22T04:16:07.294Z,27.90
2019-05-22T04:18:38.964Z,27.90
2019-05-22T04:21:10.525Z,28.00
2019-05-22T04:23:41.717Z,28.00
2019-05-22T04:26:14.442Z,28.10
2019-05-22T04:28:48.115Z,28.10
2019-05-22T04:31:20.167Z,28.10
2019-05-22T04:33:51.392Z,28.10
2019-05-22T04:36:22.887Z,28.20
2019-05-22T04:38:54.079Z,28.30
2019-05-22T04:41:25.859Z,28.30
2019-05-22T04:43:56.888Z,28.30
2019-05-22T04:46:28.643Z,28.40
2019-05-22T04:48:59.675Z,28.50
2019-05-22T04:51:31.672Z,28.50
2019-05-22T04:54:02.855Z,28.50
2019-05-22T04:56:33.863Z,28.50
2019-05-22T04:59:07.855Z,28.60
2019-05-22T05:01:38.918Z,28.60
2019-05-22T05:04:09.721Z,28.60
2019-05-22T05:06:41.033Z,28.70
2019-05-22T05:09:12.243Z,28.70
2019-05-22T05:11:43.964Z,28.70
2019-05-22T05:14:14.816Z,28.70
2019-05-22T05:16:45.817Z,28.80
2019-05-22T05:19:16.813Z,28.90
2019-05-22T05:21:47.745Z,28.90
2019-05-22T05:24:18.897Z,29.00
2019-05-22T05:26:49.958Z,29.00
2019-05-22T05:29:23.391Z,29.00
2019-05-22T05:31:54.825Z,29.10
2019-05-22T05:34:28.688Z,29.10
2019-05-22T05:37:00.543Z,29.10
2019-05-22T05:39:34.115Z,29.10
2019-05-22T05:42:05.050Z,29.20
2019-05-22T05:44:36.826Z,29.20
2019-05-22T05:47:08.036Z,29.30
2019-05-22T05:49:39.174Z,29.40
2019-05-22T05:52:11.473Z,29.40
2019-05-22T05:54:42.723Z,29.40
2019-05-22T05:57:16.423Z,29.40
2019-05-22T05:59:47.507Z,29.40
2019-05-22T06:02:18.461Z,29.40
2019-05-22T06:04:49.550Z,29.40
2019-05-22T06:07:20.818Z,29.50
2019-05-22T06:09:54.415Z,29.40
2019-05-22T06:12:25.277Z,29.50
2019-05-22T06:14:56.180Z,29.50
2019-05-22T06:17:29.407Z,29.50
2019-05-22T06:20:03.322Z,29.50
2019-05-22T06:22:35.065Z,29.60
2019-05-22T06:25:06.291Z,29.70
2019-05-22T06:27:38.978Z,29.80
2019-05-22T06:30:11.388Z,29.80
2019-05-22T06:32:46.115Z,29.80
2019-05-22T06:35:17.337Z,29.90
2019-05-22T06:37:49.404Z,30.00
2019-05-22T06:40:21.259Z,30.10
2019-05-22T06:42:55.159Z,30.10
2019-05-22T06:45:26.102Z,30.20
2019-05-22T06:47:57.127Z,30.30
2019-05-22T06:50:28.122Z,30.40
2019-05-22T06:53:09.395Z,30.40
2019-05-22T06:55:32.101Z,30.50
2019-05-22T06:58:03.136Z,30.60
2019-05-22T07:00:34.224Z,30.70
2019-05-22T07:03:05.545Z,30.70
2019-05-22T07:05:36.736Z,30.80
2019-05-22T07:08:08.404Z,30.80
2019-05-22T07:10:40.663Z,30.90
2019-05-22T07:13:12.532Z,30.90
2019-05-22T07:15:43.821Z,30.80
2019-05-22T07:18:16.740Z,30.90
2019-05-22T07:20:49.093Z,30.90
2019-05-22T07:23:22.713Z,30.90
2019-05-22T07:25:54.242Z,31.00
2019-05-22T07:28:25.465Z,31.10
2019-05-22T07:30:56.741Z,31.10
2019-05-22T07:33:27.802Z,31.20
2019-05-22T07:36:09.880Z,31.20
2019-05-22T07:38:31.610Z,31.30
2019-05-22T07:41:02.733Z,31.40
2019-05-22T07:43:33.722Z,31.40
2019-05-22T07:46:05.095Z,31.40
2019-05-22T07:48:36.277Z,31.50
2019-05-22T07:51:07.286Z,31.50
2019-05-22T07:53:38.389Z,31.50
2019-05-22T07:56:11.723Z,31.60
2019-05-22T07:58:43.023Z,31.60
2019-05-22T08:01:15.172Z,31.60
2019-05-22T08:03:45.161Z,31.60
2019-05-22T08:06:16.465Z,31.60
2019-05-22T08:08:47.491Z,31.60
2019-05-22T08:11:18.705Z,31.60
2019-05-22T08:13:49.794Z,31.70
2019-05-22T08:16:21.605Z,31.70
2019-05-22T08:18:53.175Z,31.70
2019-05-22T08:21:24.206Z,31.70
2019-05-22T08:23:56.152Z,31.70
2019-05-22T08:26:27.177Z,31.70
2019-05-22T08:28:58.578Z,31.70
2019-05-22T08:31:29.967Z,31.70
2019-05-22T08:34:01.126Z,31.70
2019-05-22T08:36:32.804Z,31.80
2019-05-22T08:39:05.011Z,31.80
2019-05-22T08:41:38.668Z,31.80
2019-05-22T08:44:16.823Z,31.80
2019-05-22T08:46:42.809Z,31.80
2019-05-22T08:49:13.811Z,31.80
2019-05-22T08:51:44.819Z,31.80
2019-05-22T08:54:16.173Z,31.80
2019-05-22T08:56:49.876Z,31.80
2019-05-22T08:59:21.238Z,31.70
2019-05-22T09:01:52.602Z,31.80
2019-05-22T09:04:23.750Z,31.70
2019-05-22T09:06:54.641Z,31.70
2019-05-22T09:09:26.787Z,31.70
2019-05-22T09:11:57.080Z,31.70
2019-05-22T09:14:28.053Z,31.70
2019-05-22T09:16:59.333Z,31.70
2019-05-22T09:19:30.791Z,31.80
2019-05-22T09:22:02.258Z,31.80
2019-05-22T09:24:34.537Z,31.80
2019-05-22T09:27:06.311Z,31.90
2019-05-22T09:29:37.627Z,31.90
2019-05-22T09:32:08.894Z,31.90
2019-05-22T09:34:40.599Z,31.90
2019-05-22T09:37:11.832Z,31.90
2019-05-22T09:39:43.301Z,31.90
2019-05-22T09:42:14.338Z,31.90
2019-05-22T09:44:45.496Z,31.90
2019-05-22T09:47:16.563Z,31.90
2019-05-22T09:49:47.490Z,31.90
2019-05-22T09:52:18.877Z,31.90
2019-05-22T09:54:50.353Z,31.90
2019-05-22T09:57:22.098Z,31.80
2019-05-22T09:59:53.005Z,31.80
2019-05-22T10:02:24.501Z,31.80
2019-05-22T10:04:55.544Z,31.70
2019-05-22T10:07:26.693Z,31.70
2019-05-22T10:09:57.933Z,31.60
2019-05-22T10:12:29.190Z,31.60
2019-05-22T10:15:00.170Z,31.70
2019-05-22T10:17:31.313Z,31.70
2019-05-22T10:20:02.309Z,31.70
2019-05-22T10:22:33.752Z,31.70
2019-05-22T10:25:15.812Z,31.60
2019-05-22T10:27:37.374Z,31.70
2019-05-22T10:30:11.073Z,31.60
2019-05-22T10:32:41.970Z,31.60
2019-05-22T10:35:15.072Z,31.70
2019-05-22T10:37:46.375Z,31.70
2019-05-22T10:40:17.331Z,31.70
2019-05-22T10:42:48.649Z,31.70
2019-05-22T10:45:19.474Z,31.60
2019-05-22T10:47:51.225Z,31.60
2019-05-22T10:50:22.309Z,31.60
2019-05-22T10:52:54.578Z,31.60
2019-05-22T10:55:25.660Z,31.60
2019-05-22T10:57:56.831Z,31.70
2019-05-22T11:00:29.209Z,31.60
2019-05-22T11:03:00.151Z,31.60
2019-05-22T11:05:32.419Z,31.60
2019-05-22T11:08:03.714Z,31.60
2019-05-22T11:10:34.689Z,31.60
2019-05-22T11:13:06.645Z,31.60
2019-05-22T11:15:37.797Z,31.60
2019-05-22T11:18:08.939Z,31.50
2019-05-22T11:20:39.936Z,31.50
2019-05-22T11:23:11.347Z,31.50
2019-05-22T11:25:42.281Z,31.40
2019-05-22T11:28:13.242Z,31.40
2019-05-22T11:30:44.727Z,31.40
2019-05-22T11:33:16.148Z,31.30
2019-05-22T11:35:47.127Z,31.30
2019-05-22T11:38:18.142Z,31.30
2019-05-22T11:40:49.127Z,31.20
2019-05-22T11:43:20.262Z,31.20
2019-05-22T11:45:51.649Z,31.20
2019-05-22T11:48:22.736Z,31.10
2019-05-22T11:50:54.603Z,31.10
2019-05-22T11:53:25.750Z,31.00
2019-05-22T11:55:56.710Z,31.00
2019-05-22T11:58:27.949Z,31.00
2019-05-22T12:00:58.996Z,30.90
2019-05-22T12:03:31.455Z,30.90
2019-05-22T12:06:02.467Z,30.90
2019-05-22T12:08:33.591Z,30.80
2019-05-22T12:11:04.961Z,30.80
2019-05-22T12:13:36.259Z,30.80
2019-05-22T12:16:07.251Z,30.70
2019-05-22T12:18:38.752Z,30.70
2019-05-22T12:21:10.060Z,30.70
2019-05-22T12:23:41.212Z,30.70
2019-05-22T12:26:12.656Z,30.60
2019-05-22T12:28:44.061Z,30.70
2019-05-22T12:31:14.958Z,30.60
2019-05-22T12:33:46.290Z,30.60
2019-05-22T12:36:17.853Z,30.60
2019-05-22T12:38:48.845Z,30.60
2019-05-22T12:41:20.476Z,30.60
2019-05-22T12:43:51.661Z,30.50
2019-05-22T12:46:22.924Z,30.50
2019-05-22T12:48:54.983Z,30.50
2019-05-22T12:51:26.218Z,30.50
2019-05-22T12:53:57.577Z,30.50
2019-05-22T12:56:28.448Z,30.50
2019-05-22T12:59:00.203Z,30.50
2019-05-22T13:01:31.525Z,30.50
2019-05-22T13:04:04.233Z,30.40
2019-05-22T13:06:35.803Z,30.40
2019-05-22T13:09:11.063Z,30.40
2019-05-22T13:11:42.165Z,30.40
2019-05-22T13:14:13.033Z,30.30
2019-05-22T13:16:48.880Z,30.30
2019-05-22T13:19:15.175Z,30.30
2019-05-22T13:21:46.878Z,30.30
2019-05-22T13:24:20.148Z,30.20
2019-05-22T13:26:52.577Z,30.20
2019-05-22T13:29:24.094Z,30.20
2019-05-22T13:31:55.367Z,30.20
2019-05-22T13:34:26.314Z,30.10
2019-05-22T13:36:57.421Z,30.20
2019-05-22T13:39:28.865Z,30.10
2019-05-22T13:41:59.913Z,30.10
2019-05-22T13:44:31.224Z,30.10
2019-05-22T13:47:02.440Z,30.10
2019-05-22T13:49:34.951Z,30.10
2019-05-22T13:52:06.246Z,30.10
2019-05-22T13:54:37.319Z,30.10
2019-05-22T13:57:08.825Z,30.10
2019-05-22T13:59:39.875Z,30.10
2019-05-22T14:02:10.815Z,30.00
2019-05-22T14:04:41.974Z,30.00
2019-05-22T14:07:13.091Z,30.00
2019-05-22T14:09:45.027Z,30.00
2019-05-22T14:12:15.998Z,30.00
2019-05-22T14:14:47.058Z,29.90
2019-05-22T14:17:18.020Z,29.90
2019-05-22T14:19:49.413Z,29.90
2019-05-22T14:22:20.433Z,29.90
2019-05-22T14:24:51.518Z,29.90
2019-05-22T14:27:22.449Z,29.90
2019-05-22T14:29:53.559Z,29.90
2019-05-22T14:32:30.123Z,29.90
2019-05-22T14:34:56.982Z,29.90
2019-05-22T14:37:28.019Z,29.90
2019-05-22T14:39:59.107Z,29.90
2019-05-22T14:42:30.279Z,29.90
2019-05-22T14:45:01.782Z,29.80
2019-05-22T14:47:32.924Z,29.80
2019-05-22T14:50:04.032Z,29.80
2019-05-22T14:52:35.151Z,29.80
2019-05-22T14:55:07.668Z,29.80
2019-05-22T14:57:39.165Z,29.80
2019-05-22T15:00:11.942Z,29.80
2019-05-22T15:02:42.987Z,29.80
2019-05-22T15:05:15.386Z,29.70
2019-05-22T15:07:46.366Z,29.70
2019-05-22T15:10:18.811Z,29.70
2019-05-22T15:12:49.692Z,29.70
2019-05-22T15:15:20.770Z,29.60
2019-05-22T15:17:52.055Z,29.60
2019-05-22T15:20:26.230Z,29.60
2019-05-22T15:22:58.110Z,29.60
2019-05-22T15:25:29.680Z,29.60
2019-05-22T15:28:00.904Z,29.60
2019-05-22T15:30:32.036Z,29.60
2019-05-22T15:33:03.220Z,29.60
2019-05-22T15:35:34.687Z,29.50
2019-05-22T15:38:06.077Z,29.50
2019-05-22T15:40:37.479Z,29.50
2019-05-22T15:43:09.995Z,29.50
2019-05-22T15:45:42.432Z,29.50
2019-05-22T15:48:16.779Z,29.40
2019-05-22T15:50:49.072Z,29.40
2019-05-22T15:53:20.998Z,29.40
2019-05-22T15:55:52.775Z,29.30
2019-05-22T15:58:25.835Z,29.30
2019-05-22T16:00:58.495Z,29.30
2019-05-22T16:03:32.239Z,29.30
2019-05-22T16:06:04.558Z,29.30
2019-05-22T16:08:37.058Z,29.30
2019-05-22T16:11:10.493Z,29.30
2019-05-22T16:13:43.556Z,29.20
2019-05-22T16:16:20.684Z,29.20
2019-05-22T16:18:55.679Z,29.20
2019-05-22T16:21:28.184Z,29.20
2019-05-22T16:24:01.084Z,29.30
2019-05-22T16:26:33.906Z,29.20
2019-05-22T16:29:05.902Z,29.20
2019-05-22T16:31:38.533Z,29.20
2019-05-22T16:34:09.610Z,29.20
2019-05-22T16:36:42.072Z,29.20
2019-05-22T16:39:14.211Z,29.20
2019-05-22T16:41:45.780Z,29.20
2019-05-22T16:44:17.734Z,29.20
2019-05-22T16:46:50.307Z,29.20
2019-05-22T16:49:22.600Z,29.20
2019-05-22T16:51:54.715Z,29.10
2019-05-22T16:54:26.473Z,29.20
2019-05-22T16:56:58.005Z,29.20
2019-05-22T16:59:29.361Z,29.20
2019-05-22T17:02:00.968Z,29.10
2019-05-22T17:04:32.820Z,29.10
2019-05-22T17:07:03.993Z,29.20
2019-05-22T17:09:35.219Z,29.20
2019-05-22T17:12:07.846Z,29.10
2019-05-22T17:14:39.444Z,29.10
2019-05-22T17:17:11.885Z,29.10
2019-05-22T17:19:43.121Z,29.10
2019-05-22T17:22:14.495Z,29.00
2019-05-22T17:24:45.857Z,29.00
2019-05-22T17:27:18.587Z,29.00
2019-05-22T17:29:50.484Z,29.00
2019-05-22T17:32:22.314Z,29.00
2019-05-22T17:34:53.269Z,29.00
2019-05-22T17:37:25.964Z,29.00
2019-05-22T17:39:57.551Z,29.00
2019-05-22T17:42:28.758Z,29.00
2019-05-22T17:45:00.111Z,28.90
2019-05-22T17:47:32.132Z,28.90
2019-05-22T17:50:03.536Z,28.90
2019-05-22T17:52:34.592Z,28.90
2019-05-22T17:55:07.775Z,28.90
2019-05-22T17:57:39.129Z,28.80
2019-05-22T18:00:11.683Z,28.80
2019-05-22T18:02:43.425Z,28.80
2019-05-22T18:05:14.695Z,28.80
2019-05-22T18:07:45.756Z,28.80
2019-05-22T18:10:17.350Z,28.80
2019-05-22T18:12:48.333Z,28.70
2019-05-22T18:15:19.839Z,28.80
2019-05-22T18:17:50.828Z,28.70
2019-05-22T18:20:22.266Z,28.70
2019-05-22T18:22:53.653Z,28.70
2019-05-22T18:25:24.974Z,28.70
2019-05-22T18:27:56.159Z,28.70
2019-05-22T18:30:27.482Z,28.70
2019-05-22T18:32:58.575Z,28.70
2019-05-22T18:35:30.112Z,28.70
2019-05-22T18:38:04.406Z,28.70
2019-05-22T18:40:33.037Z,28.70
2019-05-22T18:43:04.014Z,28.70
2019-05-22T18:45:36.462Z,28.60
2019-05-22T18:48:07.790Z,28.60
2019-05-22T18:50:38.766Z,28.60
2019-05-22T18:53:09.856Z,28.60
2019-05-22T18:55:40.827Z,28.60
2019-05-22T18:58:11.954Z,28.70
2019-05-22T19:00:43.207Z,28.70
2019-05-22T19:03:14.577Z,28.70
2019-05-22T19:05:45.389Z,28.70
2019-05-22T19:08:16.315Z,28.70
2019-05-22T19:10:47.444Z,28.70
2019-05-22T19:13:18.616Z,28.70
2019-05-22T19:15:49.756Z,28.70
2019-05-22T19:18:20.668Z,28.70
2019-05-22T19:20:51.867Z,28.70
2019-05-22T19:23:22.793Z,28.70
2019-05-22T19:25:54.038Z,28.60
2019-05-22T19:28:40.458Z,28.60
2019-05-22T19:30:57.935Z,28.60
2019-05-22T19:33:28.882Z,28.60
2019-05-22T19:35:59.993Z,28.60
2019-05-22T19:38:30.974Z,28.50
2019-05-22T19:41:02.030Z,28.60
2019-05-22T19:43:33.126Z,28.50
2019-05-22T19:46:04.255Z,28.50
2019-05-22T19:48:35.642Z,28.50
2019-05-22T19:51:06.898Z,28.40
2019-05-22T19:53:39.128Z,28.40
2019-05-22T19:56:09.174Z,28.40
2019-05-22T19:58:40.114Z,28.40
2019-05-22T20:01:11.178Z,28.50
2019-05-22T20:03:42.922Z,28.50
2019-05-22T20:06:14.099Z,28.50
2019-05-22T20:08:46.456Z,28.50
2019-05-22T20:11:17.483Z,28.40
2019-05-22T20:13:48.819Z,28.40
2019-05-22T20:16:19.985Z,28.40
2019-05-22T20:18:50.959Z,28.40
2019-05-22T20:21:23.713Z,28.40
2019-05-22T20:23:54.815Z,28.40
2019-05-22T20:26:26.220Z,28.50
2019-05-22T20:28:57.392Z,28.40
2019-05-22T20:31:28.428Z,28.50
2019-05-22T20:33:59.668Z,28.40
2019-05-22T20:36:30.707Z,28.50
2019-05-22T20:39:01.586Z,28.50
2019-05-22T20:41:33.096Z,28.50
2019-05-22T20:44:05.242Z,28.50
2019-05-22T20:46:37.971Z,28.50
2019-05-22T20:49:10.457Z,28.50
2019-05-22T20:51:41.494Z,28.50
2019-05-22T20:54:13.100Z,28.50
2019-05-22T20:56:45.887Z,28.60
2019-05-22T20:59:17.526Z,28.50
2019-05-22T21:01:49.021Z,28.50
2019-05-22T21:04:21.652Z,28.50
2019-05-22T21:06:55.285Z,28.50
2019-05-22T21:09:26.368Z,28.60
2019-05-22T21:11:57.454Z,28.60
2019-05-22T21:14:28.753Z,28.60
2019-05-22T21:17:00.308Z,28.60
2019-05-22T21:19:32.088Z,28.60
2019-05-22T21:22:04.264Z,28.60
2019-05-22T21:24:36.490Z,28.60
2019-05-22T21:27:08.822Z,28.60
2019-05-22T21:29:38.991Z,28.60
2019-05-22T21:32:11.143Z,28.60
2019-05-22T21:34:42.891Z,28.50
2019-05-22T21:37:14.140Z,28.50
2019-05-22T21:39:45.636Z,28.50
2019-05-22T21:42:16.711Z,28.50
2019-05-22T21:44:47.844Z,28.50
2019-05-22T21:47:21.063Z,28.50
2019-05-22T21:49:51.946Z,28.50
2019-05-22T21:52:23.421Z,28.50
2019-05-22T21:54:54.361Z,28.40
2019-05-22T21:57:25.338Z,28.50
2019-05-22T21:59:56.401Z,28.40
2019-05-22T22:02:31.219Z,28.40
2019-05-22T22:05:02.246Z,28.40
2019-05-22T22:07:33.415Z,28.40
2019-05-22T22:10:05.924Z,28.30
2019-05-22T22:12:37.878Z,28.30
2019-05-22T22:15:09.884Z,28.30
2019-05-22T22:17:41.011Z,28.30
2019-05-22T22:20:13.624Z,28.30
2019-05-22T22:22:45.010Z,28.20
2019-05-22T22:25:16.803Z,28.20
2019-05-22T22:27:47.874Z,28.20
2019-05-22T22:30:20.961Z,28.20
2019-05-22T22:32:52.339Z,28.20
2019-05-22T22:35:23.333Z,28.20
2019-05-22T22:37:54.314Z,28.20
2019-05-22T22:40:25.897Z,28.20
2019-05-22T22:42:57.000Z,28.20
2019-05-22T22:45:29.449Z,28.20
2019-05-22T22:48:00.458Z,28.20
2019-05-22T22:50:31.776Z,28.20
2019-05-22T22:53:02.806Z,28.10
2019-05-22T22:55:34.051Z,28.10
2019-05-22T22:58:16.454Z,28.20
2019-05-22T23:00:39.456Z,28.20
2019-05-22T23:03:12.580Z,28.20
2019-05-22T23:05:45.101Z,28.20
2019-05-22T23:08:18.649Z,28.10
2019-05-22T23:10:50.560Z,28.20
2019-05-22T23:13:22.892Z,28.20
2019-05-22T23:15:55.180Z,28.20
2019-05-22T23:18:27.035Z,28.20
2019-05-22T23:20:57.475Z,28.20
2019-05-22T23:23:27.387Z,28.20
2019-05-22T23:25:58.548Z,28.30
2019-05-22T23:28:34.837Z,28.30
2019-05-22T23:31:03.897Z,28.30
2019-05-22T23:33:35.236Z,28.30
2019-05-22T23:36:07.005Z,28.30
2019-05-22T23:38:39.253Z,28.30
2019-05-22T23:41:10.299Z,28.30
2019-05-22T23:43:42.116Z,28.40
2019-05-22T23:46:13.084Z,28.40
2019-05-22T23:48:45.206Z,28.40
2019-05-22T23:51:16.123Z,28.40
2019-05-22T23:53:47.225Z,28.50
2019-05-22T23:56:18.135Z,28.50
2019-05-22T23:58:52.574Z,28.50
